Pioneer — WDG7407 — position and weather

sailwx.info

Track history (hours):
 
Tides and Currents Weather Stations Pressure Air Temp Water Temp Dewpoint Dewpoint Depression Visibility Wind Speed Wind Dir Waves Ship Positions

Pioneer

Owner: Pennisi II, Giuseppe G, Monterey, CA. More information available from US FCC via Universal Licensing System and Coast Guard Vessel Documentation Center.

Last reported at 2018-Jun-21 15:57 UTC. Time now 2018-Jun-21 19:52 UTC.
Position N 37°49' W 122°25'.

Length 19 m.

Type: Fishing. MMSI: 367566960.

Date/timePositionNaut miles runAvg speedWind from/ knotsBaromVisibWave heightAir tempDewpointWater temp
2018-Jun-21 15:57N 37°49' W 122°25'0 0.0
2018-Jun-21 15:15N 37°49' W 122°25'0 0.0
2018-Jun-21 14:33N 37°49' W 122°25'0 0.0
2018-Jun-21 14:18N 37°49' W 122°25'0 0.0
2018-Jun-21 13:03N 37°49' W 122°25'0 0.0
2018-Jun-21 12:51N 37°49' W 122°25'0 0.0
2018-Jun-21 11:15N 37°49' W 122°25'0 0.0
2018-Jun-21 09:54N 37°49' W 122°25'0 0.0
2018-Jun-21 09:15N 37°49' W 122°25'0 0.0
2018-Jun-21 07:27N 37°49' W 122°25'0 0.0
2018-Jun-21 06:44N 37°49' W 122°25'0 0.0
2018-Jun-21 06:27N 37°49' W 122°25'0 0.0
2018-Jun-21 05:27N 37°49' W 122°25'0 0.0
2018-Jun-21 04:57N 37°49' W 122°25'0 0.0
2018-Jun-21 02:38N 37°49' W 122°25'0 0.0
2018-Jun-21 02:27N 37°49' W 122°25'0 0.0
2018-Jun-20 23:39N 37°49' W 122°25'0 0.0
2018-Jun-20 23:27N 37°49' W 122°25'0 0.0
2018-Jun-20 22:27N 37°49' W 122°25'0 0.0
2018-Jun-20 21:03N 37°49' W 122°25'0 0.0
2018-Jun-20 20:57N 37°49' W 122°25'0 0.0
2018-Jun-20 20:18N 37°49' W 122°25'0 0.0
2018-Jun-20 19:58N 37°49' W 122°25'0 0.0
2018-Jun-20 19:19N 37°49' W 122°25'0 0.0
2018-Jun-20 16:07N 37°49' W 122°25'0 0.0
2018-Jun-20 14:46N 37°49' W 122°25'0 0.0
2018-Jun-20 13:49N 37°49' W 122°25'0 0.0
2018-Jun-20 13:22N 37°49' W 122°25'0 0.0
2018-Jun-20 12:07N 37°49' W 122°25'0 0.0
2018-Jun-20 11:48N 37°49' W 122°25'0 0.0
2018-Jun-20 10:49N 37°49' W 122°25'0 0.0
2018-Jun-20 09:58N 37°49' W 122°25'0 0.0
2018-Jun-20 09:25N 37°49' W 122°25'0 0.0
2018-Jun-20 08:55N 37°49' W 122°25'0 0.0
2018-Jun-20 08:19N 37°49' W 122°25'0 0.0
2018-Jun-20 07:55N 37°49' W 122°25'0 0.0
2018-Jun-20 06:19N 37°49' W 122°25'0 0.0
2018-Jun-20 05:43N 37°49' W 122°25'0 0.0
2018-Jun-20 05:19N 37°49' W 122°25'0 0.0
2018-Jun-20 04:46N 37°49' W 122°25'0 0.0
2018-Jun-20 04:19N 37°49' W 122°25'0 0.0
2018-Jun-20 03:55N 37°49' W 122°25'0 0.0
2018-Jun-20 03:19N 37°49' W 122°25'0 0.0
2018-Jun-20 02:55N 37°49' W 122°25'0 0.0
2018-Jun-20 02:07N 37°49' W 122°25'0 0.0
2018-Jun-20 01:43N 37°49' W 122°25'0 0.0
2018-Jun-20 01:07N 37°49' W 122°25'0 0.0
2018-Jun-20 00:01N 37°49' W 122°25'0 0.0
2018-Jun-19 23:55N 37°49' W 122°25'0 0.0
2018-Jun-19 23:25N 37°49' W 122°25'0 0.0
2018-Jun-19 22:55N 37°49' W 122°25'0 0.0
2018-Jun-19 21:49N 37°49' W 122°25'0 0.0
2018-Jun-19 21:19N 37°49' W 122°25'0 0.0
2018-Jun-19 20:55N 37°49' W 122°25'0 0.0
2018-Jun-19 18:49N 37°49' W 122°25'0 0.0
2018-Jun-19 16:18N 37°49' W 122°25'0 0.0
2018-Jun-19 15:51N 37°49' W 122°25'0 0.0
2018-Jun-19 15:31N 37°49' W 122°25'0 0.0
2018-Jun-19 14:56N 37°49' W 122°25'0 0.0
2018-Jun-19 14:24N 37°49' W 122°25'0 0.0
2018-Jun-19 13:58N 37°49' W 122°25'0 0.0
2018-Jun-19 13:25N 37°49' W 122°25'0 0.0
2018-Jun-19 12:40N 37°49' W 122°25'0 0.0
2018-Jun-19 11:25N 37°49' W 122°25'0 0.0
2018-Jun-19 10:55N 37°49' W 122°25'0 0.0
2018-Jun-19 10:25N 37°49' W 122°25'0 0.0
2018-Jun-19 09:49N 37°49' W 122°25'0 0.0
2018-Jun-19 09:25N 37°49' W 122°25'0 0.0
2018-Jun-19 08:58N 37°49' W 122°25'0 0.0
2018-Jun-19 08:25N 37°49' W 122°25'0 0.0
2018-Jun-19 07:49N 37°49' W 122°25'0 0.0
2018-Jun-19 07:15N 37°49' W 122°25'1 2.6
2018-Jun-19 06:59N 37°49' W 122°26'3 6.7
2018-Jun-19 06:30N 37°48' W 122°30'1 0.0
2018-Jun-17 10:44N 37°48' W 122°31'1 5.9
2018-Jun-17 10:29N 37°49' W 122°30'2 4.1
2018-Jun-17 10:00N 37°49' W 122°27'2 0.5
2018-Jun-17 06:52N 37°49' W 122°25'0 0.0
2018-Jun-16 23:46N 37°49' W 122°25'0 0.0
2018-Jun-16 22:10N 37°49' W 122°25'0 0.0
2018-Jun-16 20:25N 37°49' W 122°25'0 0.0
2018-Jun-16 19:46N 37°49' W 122°25'0 0.3
2018-Jun-16 19:23N 37°49' W 122°25'0 0.0
2018-Jun-16 18:59N 37°49' W 122°25'0 0.0
2018-Jun-16 18:24N 37°49' W 122°25'0 0.3
2018-Jun-16 17:59N 37°49' W 122°25'0 0.1
2018-Jun-16 17:29N 37°49' W 122°25'0 0.1
2018-Jun-16 16:53N 37°49' W 122°25'0 0.1
2018-Jun-16 16:29N 37°49' W 122°25'0 0.0
2018-Jun-16 15:59N 37°49' W 122°25'0 0.0
2018-Jun-16 15:29N 37°49' W 122°25'0 0.0
2018-Jun-16 14:08N 37°49' W 122°25'0 0.0
2018-Jun-16 11:29N 37°49' W 122°25'0 0.0
2018-Jun-16 06:20N 37°49' W 122°25'0 0.0
2018-Jun-16 04:23N 37°49' W 122°25'0 0.0
2018-Jun-16 03:53N 37°49' W 122°25'0 0.0
2018-Jun-16 02:41N 37°49' W 122°25'0 0.0
2018-Jun-16 02:26N 37°49' W 122°25'0 0.0
2018-Jun-16 01:53N 37°49' W 122°25'0 0.0
2018-Jun-16 00:38N 37°49' W 122°25'0 0.0
2018-Jun-16 00:29N 37°49' W 122°25'0 0.0
2018-Jun-15 23:50N 37°49' W 122°25'0 0.0
2018-Jun-15 23:05N 37°49' W 122°25'0 0.0
2018-Jun-15 22:59N 37°49' W 122°25'0 0.0
2018-Jun-15 22:23N 37°49' W 122°25'0 0.0
2018-Jun-15 21:59N 37°49' W 122°25'0 0.0
2018-Jun-15 21:26N 37°49' W 122°25'0 0.0
2018-Jun-15 20:59N 37°49' W 122°25'0 0.0
2018-Jun-15 19:32N 37°49' W 122°25'0 0.0
2018-Jun-15 18:02N 37°49' W 122°25'0 0.0
2018-Jun-15 15:44N 37°49' W 122°25'0 0.0
2018-Jun-15 14:50N 37°49' W 122°25'0 0.0
2018-Jun-15 14:26N 37°49' W 122°25'0 0.0
2018-Jun-15 12:47N 37°49' W 122°25'0 0.0
2018-Jun-15 08:41N 37°49' W 122°25'0 0.0
2018-Jun-15 04:13N 37°49' W 122°25'0 0.0
2018-Jun-14 23:28N 37°49' W 122°25'  
Track history (hours):
 
Tides and Currents Weather Stations Pressure Air Temp Water Temp Dewpoint Dewpoint Depression Visibility Wind Speed Wind Dir Waves Ship Positions

Pioneer

Owner: Pennisi II, Giuseppe G, Monterey, CA. More information available from US FCC via Universal Licensing System and Coast Guard Vessel Documentation Center.

Last reported at 2018-Jun-21 15:57 UTC. Time now 2018-Jun-21 19:52 UTC.
Position N 37°49' W 122°25'.

Length 19 m.

Type: Fishing. MMSI: 367566960.

Date/timePositionNaut miles runAvg speedWind from/ knotsBaromVisibWave heightAir tempDewpointWater temp
2018-Jun-21 15:57N 37°49' W 122°25'0 0.0
2018-Jun-21 15:15N 37°49' W 122°25'0 0.0
2018-Jun-21 14:33N 37°49' W 122°25'0 0.0
2018-Jun-21 14:18N 37°49' W 122°25'0 0.0
2018-Jun-21 13:03N 37°49' W 122°25'0 0.0
2018-Jun-21 12:51N 37°49' W 122°25'0 0.0
2018-Jun-21 11:15N 37°49' W 122°25'0 0.0
2018-Jun-21 09:54N 37°49' W 122°25'0 0.0
2018-Jun-21 09:15N 37°49' W 122°25'0 0.0
2018-Jun-21 07:27N 37°49' W 122°25'0 0.0
2018-Jun-21 06:44N 37°49' W 122°25'0 0.0
2018-Jun-21 06:27N 37°49' W 122°25'0 0.0
2018-Jun-21 05:27N 37°49' W 122°25'0 0.0
2018-Jun-21 04:57N 37°49' W 122°25'0 0.0
2018-Jun-21 02:38N 37°49' W 122°25'0 0.0
2018-Jun-21 02:27N 37°49' W 122°25'0 0.0
2018-Jun-20 23:39N 37°49' W 122°25'0 0.0
2018-Jun-20 23:27N 37°49' W 122°25'0 0.0
2018-Jun-20 22:27N 37°49' W 122°25'0 0.0
2018-Jun-20 21:03N 37°49' W 122°25'0 0.0
2018-Jun-20 20:57N 37°49' W 122°25'0 0.0
2018-Jun-20 20:18N 37°49' W 122°25'0 0.0
2018-Jun-20 19:58N 37°49' W 122°25'0 0.0
2018-Jun-20 19:19N 37°49' W 122°25'0 0.0
2018-Jun-20 16:07N 37°49' W 122°25'0 0.0
2018-Jun-20 14:46N 37°49' W 122°25'0 0.0
2018-Jun-20 13:49N 37°49' W 122°25'0 0.0
2018-Jun-20 13:22N 37°49' W 122°25'0 0.0
2018-Jun-20 12:07N 37°49' W 122°25'0 0.0
2018-Jun-20 11:48N 37°49' W 122°25'0 0.0
2018-Jun-20 10:49N 37°49' W 122°25'0 0.0
2018-Jun-20 09:58N 37°49' W 122°25'0 0.0
2018-Jun-20 09:25N 37°49' W 122°25'0 0.0
2018-Jun-20 08:55N 37°49' W 122°25'0 0.0
2018-Jun-20 08:19N 37°49' W 122°25'0 0.0
2018-Jun-20 07:55N 37°49' W 122°25'0 0.0
2018-Jun-20 06:19N 37°49' W 122°25'0 0.0
2018-Jun-20 05:43N 37°49' W 122°25'0 0.0
2018-Jun-20 05:19N 37°49' W 122°25'0 0.0
2018-Jun-20 04:46N 37°49' W 122°25'0 0.0
2018-Jun-20 04:19N 37°49' W 122°25'0 0.0
2018-Jun-20 03:55N 37°49' W 122°25'0 0.0
2018-Jun-20 03:19N 37°49' W 122°25'0 0.0
2018-Jun-20 02:55N 37°49' W 122°25'0 0.0
2018-Jun-20 02:07N 37°49' W 122°25'0 0.0
2018-Jun-20 01:43N 37°49' W 122°25'0 0.0
2018-Jun-20 01:07N 37°49' W 122°25'0 0.0
2018-Jun-20 00:01N 37°49' W 122°25'0 0.0
2018-Jun-19 23:55N 37°49' W 122°25'0 0.0
2018-Jun-19 23:25N 37°49' W 122°25'0 0.0
2018-Jun-19 22:55N 37°49' W 122°25'0 0.0
2018-Jun-19 21:49N 37°49' W 122°25'0 0.0
2018-Jun-19 21:19N 37°49' W 122°25'0 0.0
2018-Jun-19 20:55N 37°49' W 122°25'0 0.0
2018-Jun-19 18:49N 37°49' W 122°25'0 0.0
2018-Jun-19 16:18N 37°49' W 122°25'0 0.0
2018-Jun-19 15:51N 37°49' W 122°25'0 0.0
2018-Jun-19 15:31N 37°49' W 122°25'0 0.0
2018-Jun-19 14:56N 37°49' W 122°25'0 0.0
2018-Jun-19 14:24N 37°49' W 122°25'0 0.0
2018-Jun-19 13:58N 37°49' W 122°25'0 0.0
2018-Jun-19 13:25N 37°49' W 122°25'0 0.0
2018-Jun-19 12:40N 37°49' W 122°25'0 0.0
2018-Jun-19 11:25N 37°49' W 122°25'0 0.0
2018-Jun-19 10:55N 37°49' W 122°25'0 0.0
2018-Jun-19 10:25N 37°49' W 122°25'0 0.0
2018-Jun-19 09:49N 37°49' W 122°25'0 0.0
2018-Jun-19 09:25N 37°49' W 122°25'0 0.0
2018-Jun-19 08:58N 37°49' W 122°25'0 0.0
2018-Jun-19 08:25N 37°49' W 122°25'0 0.0
2018-Jun-19 07:49N 37°49' W 122°25'0 0.0
2018-Jun-19 07:15N 37°49' W 122°25'1 2.6
2018-Jun-19 06:59N 37°49' W 122°26'3 6.7
2018-Jun-19 06:30N 37°48' W 122°30'1 0.0
2018-Jun-17 10:44N 37°48' W 122°31'1 5.9
2018-Jun-17 10:29N 37°49' W 122°30'2 4.1
2018-Jun-17 10:00N 37°49' W 122°27'2 0.5
2018-Jun-17 06:52N 37°49' W 122°25'0 0.0
2018-Jun-16 23:46N 37°49' W 122°25'0 0.0
2018-Jun-16 22:10N 37°49' W 122°25'0 0.0
2018-Jun-16 20:25N 37°49' W 122°25'0 0.0
2018-Jun-16 19:46N 37°49' W 122°25'0 0.3
2018-Jun-16 19:23N 37°49' W 122°25'0 0.0
2018-Jun-16 18:59N 37°49' W 122°25'0 0.0
2018-Jun-16 18:24N 37°49' W 122°25'0 0.3
2018-Jun-16 17:59N 37°49' W 122°25'0 0.1
2018-Jun-16 17:29N 37°49' W 122°25'0 0.1
2018-Jun-16 16:53N 37°49' W 122°25'0 0.1
2018-Jun-16 16:29N 37°49' W 122°25'0 0.0
2018-Jun-16 15:59N 37°49' W 122°25'0 0.0
2018-Jun-16 15:29N 37°49' W 122°25'0 0.0
2018-Jun-16 14:08N 37°49' W 122°25'0 0.0
2018-Jun-16 11:29N 37°49' W 122°25'0 0.0
2018-Jun-16 06:20N 37°49' W 122°25'0 0.0
2018-Jun-16 04:23N 37°49' W 122°25'0 0.0
2018-Jun-16 03:53N 37°49' W 122°25'0 0.0
2018-Jun-16 02:41N 37°49' W 122°25'0 0.0
2018-Jun-16 02:26N 37°49' W 122°25'0 0.0
2018-Jun-16 01:53N 37°49' W 122°25'0 0.0
2018-Jun-16 00:38N 37°49' W 122°25'0 0.0
2018-Jun-16 00:29N 37°49' W 122°25'0 0.0
2018-Jun-15 23:50N 37°49' W 122°25'0 0.0
2018-Jun-15 23:05N 37°49' W 122°25'0 0.0
2018-Jun-15 22:59N 37°49' W 122°25'0 0.0
2018-Jun-15 22:23N 37°49' W 122°25'0 0.0
2018-Jun-15 21:59N 37°49' W 122°25'0 0.0
2018-Jun-15 21:26N 37°49' W 122°25'0 0.0
2018-Jun-15 20:59N 37°49' W 122°25'0 0.0
2018-Jun-15 19:32N 37°49' W 122°25'0 0.0
2018-Jun-15 18:02N 37°49' W 122°25'0 0.0
2018-Jun-15 15:44N 37°49' W 122°25'0 0.0
2018-Jun-15 14:50N 37°49' W 122°25'0 0.0
2018-Jun-15 14:26N 37°49' W 122°25'0 0.0
2018-Jun-15 12:47N 37°49' W 122°25'0 0.0
2018-Jun-15 08:41N 37°49' W 122°25'0 0.0
2018-Jun-15 04:13N 37°49' W 122°25'0 0.0
2018-Jun-14 23:28N 37°49' W 122°25'  

Dump ship's entire track history